Terminal Aerodrome Forecast
Issued by NWS

Home | Current Version | Previous Version | Graphics & Text | Print | Product List | Glossary On
Versions: 1 2 3 4 5 6 7 8 9 10 11 12
999
FTUS43 KMPX 201139
TAFRWF
TAF
KRWF 201139Z 2012/2112 27008KT P6SM BKN200
     FM201400 29004KT P6SM BKN120
     FM210000 33004KT P6SM BKN070=

USA.gov is the U.S. government's official web portal to all federal, state and local government web resources and services.